Flight Track Log - Related Links

Times and Time Zones

All times are in EDT time to prevent confusion due to time zone crossing. See the ASH3767 flight status page for this flight to view local times or setup timezone preferences in your user account.

Time Position Orientation Groundspeed Altitude Reporting Facility
EDT Latitude Longitude Course Direction KTS MPH feet Rate Location/Type
Sat 08:34:06 PM 41.5767 -93.5794 55° Northeast 193 222 5,900  Level Minneapolis Center
Sat 08:35:00 PM 41.7222 -93.3375 47° Northeast  Level FlightAware Approximate
Sat 08:35:07 PM 41.6197 -93.5128 49° Northeast 240 276 7,800  Level Minneapolis Center
Sat 08:36:00 PM 41.7910 -93.2360 54° Northeast  Level FlightAware Approximate
Sat 08:36:09 PM 41.6692 -93.4339 50° Northeast 264 304 10,500  Level Minneapolis Center
Sat 08:37:00 PM 41.8515 -93.1251 54° Northeast  Level FlightAware Approximate
Sat 08:37:11 PM 41.7253 -93.3475 49° Northeast 304 350 12,000  Level Minneapolis Center
Sat 08:38:00 PM 41.9151 -93.0173 49° Northeast  Level FlightAware Approximate
Sat 08:38:12 PM 41.7858 -93.2528 49° Northeast 330 380 14,200  Level Minneapolis Center
Sat 08:39:13 PM 41.8356 -93.1717 51° Northeast 344 396 15,800 2,032 Climbing Minneapolis Center
Sat 08:40:16 PM 41.9150 -93.0472 49° Northeast 363 418 18,400 2,032 Climbing Minneapolis Center
Sat 08:41:17 PM 41.9764 -92.9458 51° Northeast 369 425 20,000 1,901 Climbing Minneapolis Center
Sat 08:41:57 PM 42.0331 -92.8578 49° Northeast 384 442 21,600 1,882 Climbing Chicago Center
Sat 08:42:59 PM 42.1000 -92.7475 51° Northeast 384 442 23,200 1,516 Climbing Chicago Center
Sat 08:43:32 PM 42.1289 -92.7050 47° Northeast 387 445 24,000 1,375 Climbing Minneapolis Center
Sat 08:44:35 PM 42.2128 -92.5669 51° Northeast 396 456 25,400 1,113 Climbing Minneapolis Center
Sat 08:45:36 PM 42.2458 -92.4150 74° East 425 489 26,300 780 Climbing Minneapolis Center
Sat 08:46:38 PM 42.2808 -92.2247 76° East 436 502 27,000 339 Climbing Minneapolis Center
Sat 08:47:40 PM 42.3111 -92.0592 76° East 451 519 27,000  Level Minneapolis Center
Sat 08:48:41 PM 42.3406 -91.8911 77° East 461 531 27,000  Level Minneapolis Center
Sat 08:49:43 PM 42.3697 -91.7236 77° East 465 535 27,000  Level Minneapolis Center
Sat 08:50:45 PM 42.3997 -91.5594 76° East 462 532 27,000  Level Minneapolis Center
Sat 08:51:47 PM 42.4306 -91.3761 77° East 433 498 27,000  Level Minneapolis Center
Sat 08:52:48 PM 42.4572 -91.2264 76° East 420 483 27,000  Level Minneapolis Center
Sat 08:53:50 PM 42.4825 -91.0742 77° East 419 482 27,000  Level Minneapolis Center
Sat 08:55:18 PM 42.5578 -90.8406 66° East 435 501 27,000  Level Chicago Center
Sat 08:56:20 PM 42.5917 -90.6858 73° East 451 519 27,000 -290 Level Chicago Center
Sat 08:57:22 PM 42.5828 -90.5222 94° East 442 509 26,400 -683 Descending Chicago Center
Sat 08:58:23 PM 42.5733 -90.3600 94° East 436 502 25,600 -780 Descending Chicago Center
Sat 08:59:25 PM 42.5622 -90.2078 96° East 412 474 24,800 -780 Descending Chicago Center
Sat 09:00:26 PM 42.5517 -90.0603 95° East 399 459 24,000 -829 Descending Chicago Center
Sat 09:01:28 PM 42.5322 -89.8956 99° East 389 448 23,100 -927 Descending Chicago Center
Sat 09:02:29 PM 42.5172 -89.7494 98° East 391 450 22,100 -976 Descending Chicago Center
Sat 09:03:31 PM 42.5000 -89.5983 99° East 402 463 21,100 -976 Descending Chicago Center
Sat 09:04:32 PM 42.4831 -89.4486 99° East 401 461 20,100 -829 Descending Chicago Center
Sat 09:05:34 PM 42.4636 -89.2742 99° East 400 460 19,400 -1,463 Descending Chicago Center
Sat 09:06:35 PM 42.4467 -89.1267 99° East 398 458 17,100 -2,146 Descending Chicago Center
Sat 09:07:37 PM 42.4311 -88.9886 99° East 378 435 15,000 -2,049 Descending Chicago Center
Sat 09:08:38 PM 42.4156 -88.8528 99° East 368 423 12,900 -1,918 Descending Chicago Center
Sat 09:09:39 PM 42.3997 -88.7219 99° East 355 409 11,100 -1,463 Descending Chicago Center
Sat 09:10:41 PM 42.3867 -88.6039 98° East 323 372 9,900 -976 Descending Chicago Center
Sat 09:11:42 PM 42.3733 -88.5011 100° East 292 336 9,100 -439 Descending Chicago Center
Sat 09:12:44 PM 42.3197 -88.4414 141° Southeast 267 307 9,000 -49 Descending Chicago Center
Sat 09:13:45 PM 42.2567 -88.4042 156° South 250 288 9,000 -443 Level Chicago Center
Sat 09:14:46 PM 42.1792 -88.3769 165° South 241 277 8,100 -1,024 Descending Chicago Center
Sat 09:15:48 PM 42.1219 -88.3714 176° South 214 246 6,900 -1,220 Descending Chicago Center
Sat 09:16:49 PM 42.0636 -88.3733 181° South 211 243 5,600 -927 Descending Chicago Center
Sat 09:17:51 PM 42.0061 -88.3714 179° South 209 241 5,000 -293 Descending Chicago Center
Sat 09:18:52 PM 41.9578 -88.3519 163° South 205 236 5,000  Level Chicago Center
Sat 09:19:53 PM 41.9672 -88.2919 78° East 164 189 5,000 -49 Level Chicago Center
Sat 09:20:55 PM 41.9672 -88.2211 90° East 184 212 4,900 -683 Descending Chicago Center
Sat 09:21:56 PM 41.9678 -88.1342 89° East 192 221 3,600 -1,107 Descending Chicago Center
Sat 09:22:38 PM 41.9667 -88.0833 92° East 161 185 3,000 -857 Descending Chicago TRACON

Login

Don't have an account? Register now (free) for customized features, flight alerts, and more!